createdAt,value
2023-04-04T00:00:26.000Z,0
2023-04-04T00:01:42.000Z,0
2023-04-04T00:02:59.000Z,0
2023-04-04T00:03:57.314Z,0
2023-04-04T00:05:30.551Z,0
2023-04-04T00:06:28.717Z,0
2023-04-04T00:08:02.000Z,0
2023-04-04T00:09:19.104Z,0
2023-04-04T00:10:35.000Z,0
2023-04-04T00:11:51.503Z,0
2023-04-04T00:13:07.697Z,0
2023-04-04T00:14:23.000Z,0
2023-04-04T00:15:40.000Z,0
2023-04-04T00:16:38.265Z,0
2023-04-04T00:18:12.478Z,0
2023-04-04T00:19:28.652Z,0
2023-04-04T00:20:44.000Z,0
2023-04-04T00:21:43.039Z,0
2023-04-04T00:23:16.249Z,0
2023-04-04T00:24:14.442Z,0
2023-04-04T00:25:30.635Z,0
2023-04-04T00:27:04.829Z,0
2023-04-04T00:28:03.022Z,0
2023-04-04T00:29:19.216Z,0
2023-04-04T00:30:53.000Z,0
2023-04-04T00:31:51.603Z,0
2023-04-04T00:33:25.000Z,0
2023-04-04T00:34:23.991Z,0
2023-04-04T00:35:58.000Z,0
2023-04-04T00:36:56.378Z,0
2023-04-04T00:38:30.571Z,0
2023-04-04T00:39:46.765Z,0
2023-04-04T00:41:02.000Z,0
2023-04-04T00:42:01.152Z,0
2023-04-04T00:43:34.380Z,0
2023-04-04T00:44:32.556Z,0
2023-04-04T00:46:06.000Z,0
2023-04-04T00:47:04.943Z,0
2023-04-04T00:48:21.136Z,0
2023-04-04T00:49:55.000Z,0
2023-04-04T00:51:11.545Z,0
2023-04-04T00:52:27.717Z,0
2023-04-04T00:53:43.000Z,0
2023-04-04T00:54:42.104Z,0
2023-04-04T00:56:16.316Z,0
2023-04-04T00:57:32.000Z,0
2023-04-04T00:58:48.000Z,0
2023-04-04T00:59:46.878Z,0
2023-04-04T01:01:21.071Z,0
2023-04-04T01:02:19.265Z,0
2023-04-04T01:04:17.000Z,0
2023-04-04T01:05:08.000Z,0
2023-04-04T01:06:24.000Z,0
2023-04-04T01:07:41.056Z,0
2023-04-04T01:08:57.000Z,0
2023-04-04T01:09:55.443Z,0
2023-04-04T01:11:29.000Z,0
2023-04-04T01:12:27.830Z,0
2023-04-04T01:14:02.000Z,0
2023-04-04T01:15:00.217Z,0
2023-04-04T01:16:34.000Z,0
2023-04-04T01:17:50.000Z,0
2023-04-04T01:19:06.826Z,0
2023-04-04T01:20:22.033Z,0
2023-04-04T01:21:38.224Z,0
2023-04-04T01:22:36.395Z,0
2023-04-04T01:24:09.611Z,0
2023-04-04T01:25:07.804Z,0
2023-04-04T01:26:42.027Z,0
2023-04-04T01:27:40.191Z,0
2023-04-04T01:29:14.401Z,0
2023-04-04T01:30:30.000Z,0
2023-04-04T01:31:46.801Z,0
2023-04-04T01:32:44.967Z,0
2023-04-04T01:34:19.000Z,0
2023-04-04T01:35:35.379Z,0
2023-04-04T01:36:51.567Z,0
2023-04-04T01:38:07.771Z,0
2023-04-04T01:39:23.000Z,0
2023-04-04T01:40:40.144Z,0
2023-04-04T01:41:37.339Z,0
2023-04-04T01:43:11.000Z,0
2023-04-04T01:44:52.000Z,0
2023-04-04T01:45:43.945Z,0
2023-04-04T01:47:00.000Z,0
2023-04-04T01:48:16.321Z,0
2023-04-04T01:49:14.499Z,0
2023-04-04T01:50:30.693Z,0
2023-04-04T01:52:04.904Z,0
2023-04-04T01:53:03.080Z,0
2023-04-04T01:54:37.274Z,0
2023-04-04T01:55:53.000Z,0
2023-04-04T01:57:09.693Z,0
2023-04-04T01:58:07.856Z,0
2023-04-04T01:59:42.000Z,0
2023-04-04T02:00:40.246Z,0
2023-04-04T02:02:13.000Z,0
2023-04-04T02:03:29.681Z,0
2023-04-04T02:04:45.871Z,0
2023-04-04T02:05:44.043Z,0
2023-04-04T02:07:00.239Z,0
2023-04-04T02:08:34.000Z,0
2023-04-04T02:09:50.649Z,0
2023-04-04T02:11:06.849Z,0
2023-04-04T02:12:47.000Z,0
2023-04-04T02:13:39.229Z,0
2023-04-04T02:15:20.000Z,0
2023-04-04T02:16:11.618Z,0
2023-04-04T02:17:27.000Z,0
2023-04-04T02:18:25.994Z,0
2023-04-04T02:19:59.238Z,0
2023-04-04T02:21:15.000Z,0
2023-04-04T02:22:13.596Z,0
2023-04-04T02:23:29.791Z,0
2023-04-04T02:25:03.000Z,0
2023-04-04T02:26:02.182Z,0
2023-04-04T02:27:36.000Z,0
2023-04-04T02:28:34.573Z,0
2023-04-04T02:30:08.793Z,0
2023-04-04T02:31:49.000Z,0
2023-04-04T02:32:41.000Z,0
2023-04-04T02:33:57.000Z,0
2023-04-04T02:35:13.000Z,0
2023-04-04T02:36:11.747Z,0
2023-04-04T02:37:44.979Z,0
2023-04-04T02:38:43.153Z,0
2023-04-04T02:40:17.371Z,0
2023-04-04T02:41:33.559Z,0
2023-04-04T02:42:31.740Z,0
2023-04-04T02:44:05.967Z,0
2023-04-04T02:45:04.131Z,0
2023-04-04T02:46:38.000Z,0
2023-04-04T02:47:54.000Z,0
2023-04-04T02:48:52.717Z,0
2023-04-04T02:50:26.945Z,0
2023-04-04T02:52:07.000Z,0
2023-04-04T02:52:59.319Z,0
2023-04-04T02:53:56.515Z,0
2023-04-04T02:55:30.000Z,0
2023-04-04T02:57:11.000Z,0
2023-04-04T02:58:03.102Z,0
2023-04-04T02:59:19.297Z,0
2023-04-04T03:00:35.000Z,0
2023-04-04T03:01:33.688Z,0
2023-04-04T03:03:07.000Z,0
2023-04-04T03:04:06.080Z,0
2023-04-04T03:05:40.308Z,0
2023-04-04T03:06:56.500Z,0
2023-04-04T03:08:12.689Z,0
2023-04-04T03:09:10.861Z,0
2023-04-04T03:10:44.000Z,0
2023-04-04T03:12:00.000Z,0
2023-04-04T03:13:16.488Z,0
2023-04-04T03:14:32.689Z,0
2023-04-04T03:15:48.877Z,0
2023-04-04T03:17:05.000Z,0
2023-04-04T03:18:21.270Z,0
2023-04-04T03:19:37.461Z,0
2023-04-04T03:20:53.659Z,0
2023-04-04T03:21:51.832Z,0
2023-04-04T03:23:26.000Z,0
2023-04-04T03:24:42.000Z,0
2023-04-04T03:25:58.000Z,0
2023-04-04T03:27:14.639Z,0
2023-04-04T03:28:30.962Z,0
2023-04-04T03:29:29.127Z,0
2023-04-04T03:30:45.323Z,0
2023-04-04T03:32:19.548Z,0
2023-04-04T03:33:35.000Z,0
2023-04-04T03:34:33.909Z,0
2023-04-04T03:35:50.105Z,0
2023-04-04T03:37:24.000Z,0
2023-04-04T03:38:22.496Z,0
2023-04-04T03:39:38.691Z,0
2023-04-04T03:41:12.887Z,0
2023-04-04T03:42:29.116Z,0
2023-04-04T03:43:45.000Z,0
2023-04-04T03:44:42.489Z,0
2023-04-04T03:46:16.711Z,0
2023-04-04T03:47:14.881Z,0
2023-04-04T03:48:49.000Z,0
2023-04-04T03:50:05.000Z,0
2023-04-04T03:51:21.502Z,0
2023-04-04T03:52:37.680Z,0
2023-04-04T03:53:53.889Z,0
2023-04-04T03:54:52.054Z,0
2023-04-04T03:56:26.249Z,0
2023-04-04T03:57:42.462Z,0
2023-04-04T03:58:58.000Z,0
2023-04-04T03:59:56.836Z,0
2023-04-04T04:01:12.047Z,0
2023-04-04T04:02:46.000Z,4
2023-04-04T04:04:02.000Z,0
2023-04-04T04:05:00.634Z,0
2023-04-04T04:06:34.000Z,4
2023-04-04T04:07:33.025Z,0
2023-04-04T04:09:07.251Z,4
2023-04-04T04:10:05.416Z,4
2023-04-04T04:11:39.647Z,4
2023-04-04T04:12:55.833Z,4
2023-04-04T04:13:54.003Z,8
2023-04-04T04:15:28.198Z,8
2023-04-04T04:16:26.394Z,8
2023-04-04T04:18:00.609Z,12
2023-04-04T04:19:15.832Z,16
2023-04-04T04:20:32.018Z,20
2023-04-04T04:21:48.000Z,24
2023-04-04T04:23:04.403Z,32
2023-04-04T04:24:20.601Z,40
2023-04-04T04:25:18.778Z,48
2023-04-04T04:26:52.974Z,56
2023-04-04T04:28:09.000Z,64
2023-04-04T04:29:25.386Z,80
2023-04-04T04:30:23.560Z,96
2023-04-04T04:31:39.756Z,112
2023-04-04T04:33:13.972Z,128
2023-04-04T04:34:30.000Z,148
2023-04-04T04:36:11.000Z,172
2023-04-04T04:36:44.538Z,200
2023-04-04T04:38:17.782Z,224
2023-04-04T04:39:33.972Z,252
2023-04-04T04:40:50.000Z,288
2023-04-04T04:42:06.000Z,320
2023-04-04T04:43:04.531Z,360
2023-04-04T04:44:20.727Z,400
2023-04-04T04:45:54.942Z,444
2023-04-04T04:47:11.000Z,484
2023-04-04T04:48:09.313Z,532
2023-04-04T04:49:43.000Z,584
2023-04-04T04:50:41.704Z,628
2023-04-04T04:52:15.000Z,680
2023-04-04T04:53:32.000Z,736
2023-04-04T04:54:30.291Z,792
2023-04-04T04:56:04.000Z,852
2023-04-04T04:57:19.000Z,904
2023-04-04T04:58:35.916Z,964
2023-04-04T04:59:52.121Z,1024
2023-04-04T05:01:08.281Z,1088
2023-04-04T05:02:24.000Z,1148
2023-04-04T05:03:22.672Z,1204
2023-04-04T05:04:56.000Z,1268
2023-04-04T05:06:13.000Z,1332
2023-04-04T05:07:29.280Z,1396
2023-04-04T05:08:27.454Z,1464
2023-04-04T05:10:01.675Z,1532
2023-04-04T05:10:59.845Z,1600
2023-04-04T05:12:34.041Z,1668
2023-04-04T05:13:50.000Z,1732
2023-04-04T05:15:06.432Z,1800
2023-04-04T05:16:04.627Z,1872
2023-04-04T05:18:02.000Z,1932
2023-04-04T05:18:54.000Z,1992
2023-04-04T05:20:10.000Z,2056
2023-04-04T05:21:08.425Z,2120
2023-04-04T05:22:42.648Z,2176
2023-04-04T05:23:40.816Z,2236
2023-04-04T05:24:57.012Z,2292
2023-04-04T05:26:31.207Z,2348
2023-04-04T05:27:47.000Z,2408
2023-04-04T05:28:45.598Z,2468
2023-04-04T05:30:19.822Z,2528
2023-04-04T05:31:35.989Z,2584
2023-04-04T05:32:34.185Z,2640
2023-04-04T05:34:08.398Z,2692
2023-04-04T05:35:23.000Z,2740
2023-04-04T05:36:21.786Z,2792
2023-04-04T05:37:56.005Z,2840
2023-04-04T05:39:12.212Z,2892
2023-04-04T05:40:27.419Z,2936
2023-04-04T05:41:43.607Z,2988
2023-04-04T05:42:59.000Z,3036
2023-04-04T05:44:15.000Z,3088
2023-04-04T05:45:32.176Z,3216
2023-04-04T05:46:30.371Z,3228
2023-04-04T05:48:04.595Z,3224
2023-04-04T05:49:02.762Z,3272
2023-04-04T05:50:36.000Z,3376
2023-04-04T05:51:35.154Z,3576
2023-04-04T05:53:09.370Z,3572
2023-04-04T05:54:07.545Z,3688
2023-04-04T05:55:23.740Z,3600
2023-04-04T05:56:57.000Z,3644
2023-04-04T05:58:14.000Z,3704
2023-04-04T05:59:30.344Z,3640
2023-04-04T06:00:45.000Z,3648
2023-04-04T06:01:43.734Z,3660
2023-04-04T06:03:17.961Z,3700
2023-04-04T06:04:16.125Z,3728
2023-04-04T06:05:50.000Z,3760
2023-04-04T06:06:48.516Z,3800
2023-04-04T06:08:04.712Z,3836
2023-04-04T06:09:38.000Z,3868
2023-04-04T06:10:55.102Z,3900
2023-04-04T06:11:53.298Z,3952
2023-04-04T06:13:27.000Z,3980
2023-04-04T06:14:25.689Z,4008
2023-04-04T06:15:59.000Z,4024
2023-04-04T06:17:16.080Z,4072
2023-04-04T06:18:32.310Z,4096
2023-04-04T06:19:48.490Z,4128
2023-04-04T06:21:03.000Z,4148
2023-04-04T06:22:19.000Z,4180
2023-04-04T06:23:18.076Z,4204
2023-04-04T06:24:34.271Z,4240
2023-04-04T06:26:08.467Z,4268
2023-04-04T06:27:24.000Z,4292
2023-04-04T06:28:40.858Z,4316
2023-04-04T06:29:39.054Z,4340
2023-04-04T06:30:55.250Z,4368
2023-04-04T06:32:29.000Z,4660
2023-04-04T06:33:45.675Z,4428
2023-04-04T06:35:01.000Z,4408
2023-04-04T06:36:18.000Z,4392
2023-04-04T06:37:16.228Z,4476
2023-04-04T06:38:50.424Z,4500
2023-04-04T06:39:48.619Z,4524
2023-04-04T06:41:04.937Z,4552
2023-04-04T06:42:39.152Z,4568
2023-04-04T06:43:55.000Z,4588
2023-04-04T06:44:53.523Z,4616
2023-04-04T06:46:09.720Z,4636
2023-04-04T06:47:43.000Z,4644
2023-04-04T06:49:00.133Z,4652
2023-04-04T06:49:58.306Z,4684
2023-04-04T06:51:32.000Z,4704
2023-04-04T06:52:30.698Z,4724
2023-04-04T06:54:04.913Z,4748
2023-04-04T06:55:03.090Z,4768
2023-04-04T06:56:37.288Z,4788
2023-04-04T06:57:53.511Z,4808
2023-04-04T06:59:08.000Z,4828
2023-04-04T07:00:24.000Z,4852
2023-04-04T07:01:41.000Z,4864
2023-04-04T07:02:39.285Z,4912
2023-04-04T07:03:55.482Z,4908
2023-04-04T07:05:11.677Z,4920
2023-04-04T07:06:45.000Z,4940
2023-04-04T07:08:02.091Z,4960
2023-04-04T07:09:18.000Z,4976
2023-04-04T07:10:16.460Z,4996
2023-04-04T07:11:50.000Z,5012
2023-04-04T07:13:06.851Z,5028
2023-04-04T07:14:23.000Z,5044
2023-04-04T07:15:21.244Z,5056
2023-04-04T07:16:54.488Z,5076
2023-04-04T07:17:52.652Z,5180
2023-04-04T07:19:26.885Z,5104
2023-04-04T07:20:43.000Z,5124
2023-04-04T07:21:59.241Z,5140
2023-04-04T07:23:15.436Z,5148
2023-04-04T07:24:13.634Z,5156
2023-04-04T07:25:47.000Z,5472
2023-04-04T07:26:46.025Z,5184
2023-04-04T07:28:20.242Z,5200
2023-04-04T07:29:36.000Z,5224
2023-04-04T07:30:34.614Z,5232
2023-04-04T07:31:50.810Z,5240
2023-04-04T07:33:07.005Z,5232
2023-04-04T07:34:40.000Z,5256
2023-04-04T07:35:38.414Z,5288
2023-04-04T07:37:12.610Z,5324
2023-04-04T07:38:28.000Z,5344
2023-04-04T07:39:27.003Z,5364
2023-04-04T07:40:43.198Z,5384
2023-04-04T07:42:17.414Z,5372
2023-04-04T07:43:15.590Z,5244
2023-04-04T07:44:49.000Z,5388
2023-04-04T07:46:05.000Z,5400
2023-04-04T07:47:04.178Z,5420
2023-04-04T07:48:20.374Z,5420
2023-04-04T07:49:54.000Z,5460
2023-04-04T07:51:10.000Z,5468
2023-04-04T07:52:26.963Z,5484
2023-04-04T07:53:43.181Z,5468
2023-04-04T07:54:41.356Z,5476
2023-04-04T07:55:57.551Z,5508
2023-04-04T07:57:12.764Z,5532
2023-04-04T07:58:46.984Z,5492
2023-04-04T08:00:03.000Z,5496
2023-04-04T08:01:01.352Z,5552
2023-04-04T08:02:35.581Z,5520
2023-04-04T08:03:51.744Z,5544
2023-04-04T08:05:07.959Z,5552
2023-04-04T08:06:24.166Z,5552
2023-04-04T08:07:40.000Z,5536
2023-04-04T08:08:38.528Z,5552
2023-04-04T08:10:12.000Z,5548
2023-04-04T08:11:28.000Z,5564
2023-04-04T08:13:09.000Z,5564
2023-04-04T08:13:42.327Z,5572
2023-04-04T08:15:16.000Z,5576
2023-04-04T08:16:32.000Z,5580
2023-04-04T08:17:48.914Z,5576
2023-04-04T08:18:47.109Z,5580
2023-04-04T08:20:21.304Z,5576
2023-04-04T08:21:19.499Z,5580
2023-04-04T08:22:53.000Z,5592
2023-04-04T08:24:09.908Z,5600
2023-04-04T08:25:26.000Z,5624
2023-04-04T08:26:42.000Z,5636
2023-04-04T08:27:40.476Z,5632
2023-04-04T08:29:14.671Z,5644
2023-04-04T08:30:30.000Z,5640
2023-04-04T08:31:29.062Z,5652
2023-04-04T08:33:02.000Z,5652
2023-04-04T08:34:18.492Z,5664
2023-04-04T08:35:34.000Z,4620
2023-04-04T08:36:32.862Z,5704
2023-04-04T08:38:07.000Z,5816
2023-04-04T08:39:23.000Z,5796
2023-04-04T08:40:39.000Z,5404
2023-04-04T08:41:55.000Z,5804
2023-04-04T08:43:11.000Z,6152
2023-04-04T08:44:10.036Z,5788
2023-04-04T08:45:44.000Z,5772
2023-04-04T08:46:42.426Z,5776
2023-04-04T08:48:16.000Z,5784
2023-04-04T08:49:32.853Z,5824
2023-04-04T08:50:31.013Z,5864
2023-04-04T08:52:05.207Z,6160
2023-04-04T08:53:21.403Z,6028
2023-04-04T08:54:37.000Z,4724
2023-04-04T08:55:53.000Z,4148
2023-04-04T08:57:09.000Z,4280
2023-04-04T08:58:26.211Z,5296
2023-04-04T08:59:23.395Z,6076
2023-04-04T09:00:57.000Z,6132
2023-04-04T09:02:13.821Z,4536
2023-04-04T09:03:30.010Z,4688
2023-04-04T09:04:46.000Z,5448
2023-04-04T09:06:02.393Z,6100
2023-04-04T09:07:18.000Z,6280
2023-04-04T09:08:34.000Z,6276
2023-04-04T09:09:50.976Z,6256
2023-04-04T09:11:07.152Z,6484
2023-04-04T09:12:05.347Z,6636
2023-04-04T09:13:39.543Z,6632
2023-04-04T09:14:55.757Z,6292
2023-04-04T09:16:10.949Z,6872
2023-04-04T09:17:27.144Z,6024
2023-04-04T09:18:43.362Z,6420
2023-04-04T09:19:59.535Z,5004
2023-04-04T09:21:15.000Z,5136
2023-04-04T09:22:13.925Z,5592
2023-04-04T09:23:48.000Z,5088
2023-04-04T09:25:04.000Z,5112
2023-04-04T09:26:20.538Z,5376
2023-04-04T09:27:18.705Z,7040
2023-04-04T09:28:52.920Z,5564
2023-04-04T09:30:09.124Z,5428
2023-04-04T09:31:25.328Z,6444
2023-04-04T09:32:40.000Z,7464
2023-04-04T09:33:56.000Z,6736
2023-04-04T09:34:54.894Z,6316
2023-04-04T09:36:29.090Z,5564
2023-04-04T09:37:45.317Z,6048
2023-04-04T09:39:01.000Z,5332
2023-04-04T09:40:17.696Z,5404
2023-04-04T09:41:58.000Z,5660
2023-04-04T09:42:32.064Z,7544
2023-04-04T09:44:06.000Z,7972
2023-04-04T09:45:22.000Z,7228
2023-04-04T09:46:38.650Z,6364
2023-04-04T09:47:54.875Z,7460
2023-04-04T09:49:11.000Z,7340
2023-04-04T09:50:27.000Z,6628
2023-04-04T09:51:25.431Z,7004
2023-04-04T09:52:41.625Z,5184
2023-04-04T09:54:14.000Z,5120
2023-04-04T09:55:13.033Z,5120
2023-04-04T09:56:28.250Z,5644
2023-04-04T09:58:02.000Z,6276
2023-04-04T09:59:18.676Z,7256
2023-04-04T10:00:16.836Z,7260
2023-04-04T10:01:51.000Z,7232
2023-04-04T10:02:49.227Z,7276
2023-04-04T10:04:23.000Z,7320
2023-04-04T10:05:39.000Z,7432
2023-04-04T10:06:55.000Z,7468
2023-04-04T10:07:54.008Z,7492
2023-04-04T10:09:28.224Z,7516
2023-04-04T10:10:44.000Z,7588
2023-04-04T10:12:00.000Z,7336
2023-04-04T10:12:58.789Z,5588
2023-04-04T10:14:33.003Z,7124
2023-04-04T10:15:49.203Z,5380
2023-04-04T10:17:04.000Z,5304
2023-04-04T10:18:20.000Z,5300
2023-04-04T10:19:36.000Z,5384
2023-04-04T10:20:52.000Z,5476
2023-04-04T10:22:09.208Z,5604
2023-04-04T10:23:25.000Z,7820
2023-04-04T10:24:41.565Z,7824
2023-04-04T10:25:57.000Z,7936
2023-04-04T10:27:13.000Z,7980
2023-04-04T10:28:30.171Z,7852
2023-04-04T10:29:46.000Z,7884
2023-04-04T10:31:02.000Z,7968
2023-04-04T10:32:18.000Z,7960
2023-04-04T10:33:16.931Z,7680
2023-04-04T10:34:51.000Z,6672
2023-04-04T10:36:07.322Z,6320
2023-04-04T10:37:23.543Z,6760
2023-04-04T10:38:38.000Z,6420
2023-04-04T10:39:54.925Z,6452
2023-04-04T10:40:53.120Z,5788
2023-04-04T10:42:27.000Z,5524
2023-04-04T10:43:25.510Z,5508
2023-04-04T10:44:59.706Z,5500
2023-04-04T10:45:57.903Z,5440
2023-04-04T10:47:32.000Z,5456
2023-04-04T10:48:48.000Z,5528
2023-04-04T10:50:04.516Z,5300
2023-04-04T10:51:20.703Z,5256
2023-04-04T10:52:18.880Z,5256
2023-04-04T10:53:35.074Z,5288
2023-04-04T10:55:09.000Z,5268
2023-04-04T10:56:07.466Z,5484
2023-04-04T10:57:40.000Z,5360
2023-04-04T10:58:38.873Z,5484
2023-04-04T10:59:55.069Z,6040
2023-04-04T11:01:29.000Z,7428
2023-04-04T11:02:45.460Z,7460
2023-04-04T11:03:43.655Z,7488
2023-04-04T11:05:17.851Z,7556
2023-04-04T11:06:34.000Z,7548
2023-04-04T11:07:50.000Z,7588
2023-04-04T11:08:48.438Z,7672
2023-04-04T11:10:22.668Z,7728
2023-04-04T11:11:20.828Z,7804
2023-04-04T11:12:55.050Z,7976
2023-04-04T11:14:10.000Z,8132
2023-04-04T11:15:51.000Z,8008
2023-04-04T11:16:42.646Z,7996
2023-04-04T11:17:58.000Z,7448
2023-04-04T11:18:57.018Z,7700
2023-04-04T11:20:31.000Z,7268
2023-04-04T11:21:47.447Z,5872
2023-04-04T11:23:03.000Z,5788
2023-04-04T11:24:19.000Z,5700
2023-04-04T11:25:35.000Z,5636
2023-04-04T11:26:52.000Z,5576
2023-04-04T11:28:08.406Z,5500
2023-04-04T11:29:24.582Z,5448
2023-04-04T11:30:40.000Z,5464
2023-04-04T11:31:56.992Z,5492
2023-04-04T11:33:12.199Z,5576
2023-04-04T11:34:10.373Z,6256
2023-04-04T11:35:44.597Z,7532
2023-04-04T11:36:42.760Z,7476
2023-04-04T11:37:58.953Z,7636
2023-04-04T11:39:33.000Z,7752
2023-04-04T11:40:49.000Z,7576
2023-04-04T11:41:47.534Z,6248
2023-04-04T11:43:21.753Z,7732
2023-04-04T11:44:19.920Z,5836
2023-04-04T11:45:54.000Z,5656
2023-04-04T11:47:10.332Z,5900
2023-04-04T11:48:26.000Z,5516
2023-04-04T11:49:24.693Z,5468
2023-04-04T11:50:40.888Z,5428
2023-04-04T11:52:15.000Z,5552
2023-04-04T11:53:31.000Z,5384
2023-04-04T11:54:47.488Z,5396
2023-04-04T11:56:02.678Z,5436
2023-04-04T11:57:00.870Z,5464
2023-04-04T11:58:35.000Z,5552
2023-04-04T11:59:51.000Z,5520
2023-04-04T12:01:07.471Z,5712
2023-04-04T12:02:05.644Z,7392
2023-04-04T12:03:39.000Z,7400
2023-04-04T12:04:56.030Z,7372
2023-04-04T12:05:54.223Z,7152
2023-04-04T12:07:28.443Z,6964
2023-04-04T12:08:44.638Z,6384
2023-04-04T12:09:42.803Z,5320
2023-04-04T12:11:16.997Z,5188
2023-04-04T12:12:15.190Z,5108
2023-04-04T12:13:31.383Z,5160
2023-04-04T12:14:47.577Z,5176
2023-04-04T12:16:20.787Z,5208
2023-04-04T12:17:36.000Z,5316
2023-04-04T12:18:53.000Z,5476
2023-04-04T12:19:51.366Z,5668
2023-04-04T12:21:25.000Z,5892
2023-04-04T12:22:23.753Z,7116
2023-04-04T12:23:57.000Z,7448
2023-04-04T12:25:14.173Z,7180
2023-04-04T12:26:30.334Z,6612
2023-04-04T12:27:46.558Z,6296
2023-04-04T12:29:02.747Z,6308
2023-04-04T12:30:18.914Z,6328
2023-04-04T12:31:35.129Z,6176
2023-04-04T12:32:32.317Z,6464
2023-04-04T12:34:06.546Z,5940
2023-04-04T12:35:04.704Z,5708
2023-04-04T12:36:38.000Z,5616
2023-04-04T12:37:55.000Z,5576
2023-04-04T12:39:11.000Z,5560
2023-04-04T12:40:27.498Z,5600
2023-04-04T12:41:43.000Z,5628
2023-04-04T12:42:59.000Z,5696
2023-04-04T12:44:16.000Z,5772
2023-04-04T12:45:14.250Z,5900
2023-04-04T12:46:48.000Z,6004
2023-04-04T12:47:46.636Z,6396
2023-04-04T12:49:20.951Z,6440
2023-04-04T12:50:37.000Z,6500
2023-04-04T12:51:35.337Z,6640
2023-04-04T12:52:51.531Z,6964
2023-04-04T12:54:25.754Z,7468
2023-04-04T12:55:41.000Z,7736
2023-04-04T12:56:58.000Z,7576
2023-04-04T12:58:39.000Z,7272
2023-04-04T12:59:30.535Z,6912
2023-04-04T13:00:28.691Z,6416
2023-04-04T13:02:02.923Z,6156
2023-04-04T13:03:01.078Z,6156
2023-04-04T13:04:35.000Z,6220
2023-04-04T13:05:33.465Z,6292
2023-04-04T13:07:06.000Z,6380
2023-04-04T13:08:22.000Z,6404
2023-04-04T13:09:21.062Z,6592
2023-04-04T13:10:37.255Z,7044
2023-04-04T13:12:11.469Z,7192
2023-04-04T13:13:27.676Z,7376
2023-04-04T13:14:25.835Z,7208
2023-04-04T13:15:42.029Z,7448
2023-04-04T13:17:16.246Z,7512
2023-04-04T13:18:14.415Z,7336
2023-04-04T13:19:48.608Z,7584
2023-04-04T13:21:04.000Z,7892
2023-04-04T13:22:21.000Z,7896
2023-04-04T13:23:37.212Z,7888
2023-04-04T13:24:52.420Z,7852
2023-04-04T13:25:50.591Z,7856
2023-04-04T13:27:24.808Z,7516
2023-04-04T13:28:40.000Z,7172
2023-04-04T13:29:57.201Z,7180
2023-04-04T13:30:55.364Z,7244
2023-04-04T13:32:29.000Z,6632
2023-04-04T13:33:45.000Z,6100
2023-04-04T13:35:01.000Z,5960
2023-04-04T13:36:00.137Z,5876
2023-04-04T13:37:59.000Z,5832
2023-04-04T13:38:32.523Z,5816
2023-04-04T13:40:06.000Z,5948
2023-04-04T13:41:04.910Z,6156
2023-04-04T13:42:39.000Z,5884
2023-04-04T13:43:37.296Z,5792
2023-04-04T13:44:52.506Z,6064
2023-04-04T13:46:26.000Z,5848
2023-04-04T13:47:42.916Z,5764
2023-04-04T13:48:59.107Z,5816
2023-04-04T13:50:15.000Z,5988
2023-04-04T13:51:13.471Z,7140
2023-04-04T13:52:47.689Z,5960
2023-04-04T13:54:03.895Z,5904
2023-04-04T13:55:02.051Z,7112
2023-04-04T13:56:36.277Z,7528
2023-04-04T13:57:52.000Z,10412
2023-04-04T13:59:08.630Z,10752
2023-04-04T14:00:06.823Z,11472
2023-04-04T14:01:23.016Z,13232
2023-04-04T14:02:38.225Z,6356
2023-04-04T14:03:54.418Z,6960
2023-04-04T14:05:28.000Z,5792
2023-04-04T14:06:26.804Z,7000
2023-04-04T14:08:00.996Z,5704
2023-04-04T14:08:59.190Z,5748
2023-04-04T14:10:33.000Z,5512
2023-04-04T14:11:49.575Z,6472
2023-04-04T14:13:05.000Z,6860
2023-04-04T14:14:03.962Z,7172
2023-04-04T14:15:38.182Z,6092
2023-04-04T14:16:35.369Z,5624
2023-04-04T14:18:09.562Z,5656
2023-04-04T14:19:07.755Z,6768
2023-04-04T14:20:41.000Z,5592
2023-04-04T14:21:58.165Z,5568
2023-04-04T14:23:14.000Z,5632
2023-04-04T14:24:30.000Z,5652
2023-04-04T14:25:46.750Z,5728
2023-04-04T14:26:44.914Z,5844
2023-04-04T14:28:19.000Z,5900
2023-04-04T14:29:17.300Z,6016
2023-04-04T14:30:51.000Z,6148
2023-04-04T14:32:07.686Z,7168
2023-04-04T14:33:23.907Z,7224
2023-04-04T14:34:21.087Z,7668
2023-04-04T14:35:55.000Z,7924
2023-04-04T14:37:11.000Z,8176
2023-04-04T14:38:27.000Z,7132
2023-04-04T14:39:25.861Z,6736
2023-04-04T14:40:42.054Z,8212
2023-04-04T14:41:58.247Z,8268
2023-04-04T14:43:32.000Z,6784
2023-04-04T14:44:30.633Z,6776
2023-04-04T14:45:46.827Z,8104
2023-04-04T14:47:03.020Z,7120
2023-04-04T14:48:37.213Z,6460
2023-04-04T14:49:53.000Z,7932
2023-04-04T14:51:09.637Z,6228
2023-04-04T14:52:06.807Z,6504
2023-04-04T14:53:41.001Z,6200
2023-04-04T14:54:57.000Z,6832
2023-04-04T14:55:55.387Z,7852
2023-04-04T14:57:29.000Z,8336
2023-04-04T14:58:45.000Z,8384
2023-04-04T15:00:26.000Z,6204
2023-04-04T15:01:18.000Z,6760
2023-04-04T15:02:34.000Z,7652
2023-04-04T15:03:50.000Z,9372
2023-04-04T15:04:48.738Z,10024
2023-04-04T15:06:22.000Z,8752
2023-04-04T15:07:39.000Z,9208
2023-04-04T15:08:54.000Z,9416
2023-04-04T15:10:10.000Z,9228
2023-04-04T15:11:26.741Z,8944
2023-04-04T15:12:42.936Z,9544
2023-04-04T15:13:59.105Z,9956
2023-04-04T15:15:15.000Z,9176
2023-04-04T15:16:13.491Z,8988
2023-04-04T15:17:47.708Z,9156
2023-04-04T15:19:03.000Z,5372
2023-04-04T15:20:02.071Z,4808
2023-04-04T15:21:36.264Z,4588
2023-04-04T15:22:52.000Z,4532
2023-04-04T15:24:08.000Z,4512
2023-04-04T15:25:24.863Z,4168
2023-04-04T15:26:41.000Z,4028
2023-04-04T15:27:57.000Z,3932
2023-04-04T15:29:13.000Z,3824
2023-04-04T15:30:11.735Z,3788
2023-04-04T15:31:27.928Z,3768
2023-04-04T15:32:44.121Z,3796
2023-04-04T15:34:18.342Z,3732
2023-04-04T15:35:34.000Z,3708
2023-04-04T15:36:50.000Z,3692
2023-04-04T15:37:48.893Z,3628
2023-04-04T15:39:23.104Z,3528
2023-04-04T15:40:39.000Z,3432
2023-04-04T15:41:37.473Z,3344
2023-04-04T15:42:53.666Z,3252
2023-04-04T15:44:26.000Z,3220
2023-04-04T15:45:25.069Z,3156
2023-04-04T15:46:59.262Z,3088
2023-04-04T15:47:57.455Z,3084
2023-04-04T15:49:31.000Z,3072
2023-04-04T15:50:29.842Z,3064
2023-04-04T15:52:04.000Z,3044
2023-04-04T15:53:20.000Z,3032
2023-04-04T15:54:36.443Z,2980
2023-04-04T15:55:34.615Z,2940
2023-04-04T15:57:08.830Z,2908
2023-04-04T15:58:25.026Z,2880
2023-04-04T15:59:41.195Z,2844
2023-04-04T16:00:57.000Z,2792
2023-04-04T16:02:13.611Z,2748
2023-04-04T16:03:28.000Z,2688
2023-04-04T16:04:45.020Z,2640
2023-04-04T16:06:01.000Z,2608
2023-04-04T16:07:17.000Z,2576
2023-04-04T16:08:33.583Z,2544
2023-04-04T16:09:49.000Z,2516
2023-04-04T16:11:05.987Z,2512
2023-04-04T16:12:22.183Z,2484
2023-04-04T16:13:38.364Z,2448
2023-04-04T16:14:54.531Z,2440
2023-04-04T16:15:52.724Z,2476
2023-04-04T16:17:26.000Z,2456
2023-04-04T16:18:43.000Z,2416
2023-04-04T16:19:59.000Z,2396
2023-04-04T16:20:57.497Z,2400
2023-04-04T16:22:30.000Z,2344
2023-04-04T16:23:28.899Z,2224
2023-04-04T16:25:03.117Z,2068
2023-04-04T16:26:01.287Z,1888
2023-04-04T16:27:35.000Z,1692
2023-04-04T16:28:51.000Z,1528
2023-04-04T16:30:07.000Z,1408
2023-04-04T16:31:24.059Z,1328
2023-04-04T16:32:40.276Z,1268
2023-04-04T16:33:38.446Z,1224
2023-04-04T16:35:12.640Z,1188
2023-04-04T16:36:10.833Z,1168
2023-04-04T16:37:45.000Z,1156
2023-04-04T16:38:43.219Z,1152
2023-04-04T16:40:17.450Z,1160
2023-04-04T16:41:33.640Z,1168
2023-04-04T16:42:48.000Z,1180
2023-04-04T16:44:05.000Z,1192
2023-04-04T16:45:21.201Z,1204
2023-04-04T16:46:19.395Z,1212
2023-04-04T16:47:35.588Z,1224
2023-04-04T16:48:51.781Z,1232
2023-04-04T16:50:25.996Z,1220
2023-04-04T16:51:42.167Z,1208
2023-04-04T16:52:58.360Z,1204
2023-04-04T16:54:14.582Z,1196
2023-04-04T16:55:30.767Z,1180
2023-04-04T16:56:46.000Z,1188
2023-04-04T16:57:45.133Z,2176
2023-04-04T16:59:00.342Z,8408
2023-04-04T17:00:34.000Z,8916
2023-04-04T17:01:50.750Z,9348
2023-04-04T17:03:06.000Z,5676
2023-04-04T17:04:23.152Z,1968
2023-04-04T17:05:39.000Z,1480
2023-04-04T17:07:20.000Z,1364
2023-04-04T17:08:11.000Z,1292
2023-04-04T17:09:27.000Z,1232
2023-04-04T17:10:44.000Z,1152
2023-04-04T17:11:42.275Z,1068
2023-04-04T17:13:16.500Z,980
2023-04-04T17:14:14.661Z,876
2023-04-04T17:15:47.000Z,760
2023-04-04T17:17:04.000Z,680
2023-04-04T17:18:02.257Z,612
2023-04-04T17:19:18.450Z,552
2023-04-04T17:20:52.664Z,500